Time;durP1;ratioP1;P1;durP2;ratioP2;P2;SDS_P1;SDS_P2;PMS_P1;PMS_P2;Temp;Humidity;BMP_temperature;BMP_pressure;BME280_temperature;BME280_humidity;BME280_pressure;Samples;Min_cycle;Max_cycle;Signal;HPM_P1;HPM_P2
2023/05/27 00:01:25;;;;;;;;;6.67;6.67;;;;;15.08;53.00;102428.28;5078027;28;45223;-63
2023/05/27 00:03:51;;;;;;;;;8.67;7.00;;;;;14.96;53.50;102439.94;5077387;28;46107;-63
2023/05/27 00:06:16;;;;;;;;;11.67;6.67;;;;;14.86;53.44;102421.53;5077554;28;45313;-63
2023/05/27 00:08:41;;;;;;;;;11.67;7.33;;;;;14.71;53.87;102398.72;5077420;28;45462;-63
2023/05/27 00:11:07;;;;;;;;;5.00;5.00;;;;;14.90;52.75;102433.84;5077893;28;45400;-63
2023/05/27 00:13:32;;;;;;;;;10.00;7.00;;;;;14.84;53.30;102429.53;5077402;28;46056;-63
2023/05/27 00:15:57;;;;;;;;;9.33;8.67;;;;;14.83;53.96;102429.50;5077382;28;45923;-63
2023/05/27 00:18:23;;;;;;;;;7.33;6.67;;;;;14.73;53.67;102415.53;5077487;28;45690;-63
2023/05/27 00:20:48;;;;;;;;;7.00;6.67;;;;;14.73;53.57;102423.47;5081246;28;45260;-63
2023/05/27 00:23:14;;;;;;;;;10.33;7.67;;;;;14.69;54.07;102433.22;5080986;28;45485;-63
2023/05/27 00:25:40;;;;;;;;;10.67;6.67;;;;;14.63;54.13;102428.88;5080909;28;45434;-63
2023/05/27 00:28:05;;;;;;;;;9.33;7.67;;;;;14.61;54.17;102422.72;5080744;28;45260;-63
2023/05/27 00:30:30;;;;;;;;;10.33;7.67;;;;;14.58;55.17;102429.78;5081239;28;45346;-63
2023/05/27 00:32:56;;;;;;;;;8.33;6.33;;;;;14.44;54.37;102414.94;5080652;28;46605;-63
2023/05/27 00:35:21;;;;;;;;;7.67;7.67;;;;;14.48;54.50;102414.91;5080807;28;45357;-63
2023/05/27 00:37:46;;;;;;;;;12.33;7.33;;;;;14.37;54.02;102418.56;5080822;28;45249;-63
2023/05/27 00:40:15;;;;;;;;;8.33;8.00;;;;;14.39;54.67;102424.75;5080872;28;45344;-63
2023/05/27 00:42:40;;;;;;;;;9.00;7.00;;;;;14.35;55.01;102430.97;5080503;28;45309;-63
2023/05/27 00:45:06;;;;;;;;;10.00;8.00;;;;;14.35;54.51;102428.31;5080537;28;45452;-64
2023/05/27 00:47:33;;;;;;;;;10.33;7.67;;;;;14.32;54.92;102427.44;5080832;28;45443;-63
2023/05/27 00:49:58;;;;;;;;;9.33;7.00;;;;;14.27;55.36;102414.25;5080743;28;45419;-63
2023/05/27 00:52:24;;;;;;;;;10.00;7.00;;;;;14.17;54.95;102402.88;5080276;28;46414;-63
2023/05/27 00:54:51;;;;;;;;;10.00;8.00;;;;;14.23;55.36;102410.78;5080235;27;45400;-63
2023/05/27 00:57:17;;;;;;;;;11.33;8.67;;;;;14.14;55.72;102407.34;5080484;28;45308;-63
2023/05/27 00:59:43;;;;;;;;;13.00;8.67;;;;;13.95;55.73;102377.53;5062265;28;45487;-63
2023/05/27 01:02:08;;;;;;;;;8.67;8.00;;;;;14.13;55.69;102408.25;5080420;28;46646;-63
2023/05/27 01:04:33;;;;;;;;;9.00;8.33;;;;;14.09;55.93;102412.72;5080063;28;45329;-63
2023/05/27 01:07:15;;;;;;;;;11.00;7.67;;;;;14.09;54.69;102413.56;5080449;28;45313;-63
2023/05/27 01:09:48;;;;;;;;;10.33;7.33;;;;;14.04;56.47;102411.88;5080671;28;45315;-63
2023/05/27 01:12:13;;;;;;;;;12.33;10.00;;;;;14.01;55.99;102404.81;5080027;28;46323;-63
2023/05/27 01:14:43;;;;;;;;;10.00;6.67;;;;;13.93;55.66;102396.97;5080035;28;45474;-63
2023/05/27 01:17:11;;;;;;;;;12.33;7.00;;;;;13.98;55.51;102402.22;5080444;28;46064;-63
2023/05/27 01:19:44;;;;;;;;;9.67;6.33;;;;;13.89;55.67;102397.88;5080052;28;45463;-63
2023/05/27 01:22:13;;;;;;;;;10.33;8.67;;;;;13.79;56.38;102384.75;5079799;28;46019;-63
2023/05/27 01:24:41;;;;;;;;;13.33;8.67;;;;;13.86;56.08;102394.41;5079981;28;45263;-63
2023/05/27 01:27:06;;;;;;;;;11.33;5.33;;;;;13.83;56.82;102397.94;5080010;28;45265;-63
2023/05/27 01:29:32;;;;;;;;;8.00;6.67;;;;;13.82;56.35;102401.47;5080298;28;45286;-63
2023/05/27 01:32:06;;;;;;;;;14.67;7.67;;;;;13.76;56.85;102404.19;5078820;28;46681;-63
2023/05/27 01:34:45;;;;;;;;;8.67;6.33;;;;;13.72;55.55;102383.94;5079700;28;45394;-63
2023/05/27 01:37:13;;;;;;;;;8.33;6.33;;;;;13.72;56.19;102400.72;5079843;28;45252;-63
2023/05/27 01:39:41;;;;;;;;;13.33;6.33;;;;;13.46;56.90;102353.28;5080195;28;45434;-63
2023/05/27 01:42:07;;;;;;;;;7.67;6.00;;;;;13.68;56.56;102396.34;5079542;28;45507;-63
2023/05/27 01:44:33;;;;;;;;;9.67;6.33;;;;;13.64;56.87;102386.66;5079577;28;45422;-63
2023/05/27 01:47:01;;;;;;;;;10.67;7.33;;;;;13.65;56.71;102391.06;5079653;28;45434;-63
2023/05/27 01:49:27;;;;;;;;;10.67;7.00;;;;;13.61;57.29;102384.03;5079686;28;45265;-63
2023/05/27 01:51:53;;;;;;;;;8.00;6.33;;;;;13.62;57.00;102384.91;5079584;28;45428;-63
2023/05/27 01:54:18;;;;;;;;;8.33;7.00;;;;;13.60;56.51;102382.28;5079384;28;45228;-63
2023/05/27 01:56:44;;;;;;;;;8.67;8.33;;;;;13.58;56.35;102381.44;5079573;28;45214;-63
2023/05/27 01:59:09;;;;;;;;;12.33;7.00;;;;;13.57;57.51;102377.88;5079705;28;45233;-62
2023/05/27 02:01:34;;;;;;;;;9.33;5.33;;;;;13.45;57.40;102361.22;5079253;28;46366;-62
2023/05/27 02:04:00;;;;;;;;;11.00;8.33;;;;;13.40;57.05;102359.53;5079275;28;45376;-62
2023/05/27 02:06:26;;;;;;;;;8.33;6.67;;;;;13.43;57.70;102369.19;5079412;28;45311;-62
2023/05/27 02:08:51;;;;;;;;;9.33;7.00;;;;;13.35;57.30;102369.25;5079484;28;45400;-63
2023/05/27 02:11:17;;;;;;;;;11.67;7.67;;;;;13.26;57.73;102368.41;5079244;28;46023;-62
2023/05/27 02:13:42;;;;;;;;;11.00;7.00;;;;;13.28;58.10;102367.53;5079175;28;45518;-62
2023/05/27 02:16:08;;;;;;;;;8.33;7.00;;;;;13.30;57.72;102365.75;5079401;28;45329;-62
2023/05/27 02:18:34;;;;;;;;;11.00;8.00;;;;;13.23;57.55;102349.06;5079348;28;45428;-62
2023/05/27 02:21:05;;;;;;;;;7.67;6.00;;;;;13.28;58.00;102366.66;5079066;27;46472;-62
2023/05/27 02:23:30;;;;;;;;;6.67;6.00;;;;;13.25;57.94;102367.56;5083885;27;45331;-62
2023/05/27 02:25:56;;;;;;;;;9.00;6.00;;;;;13.22;58.13;102362.28;5087453;27;45439;-65
2023/05/27 02:28:21;;;;;;;;;12.00;7.33;;;;;13.22;58.13;102376.38;5077851;28;45392;-65
2023/05/27 02:30:47;;;;;;;;;16.33;7.00;;;;;13.16;57.48;102357.91;5078601;28;46348;-65
2023/05/27 02:33:12;;;;;;;;;15.00;8.67;;;;;13.17;58.08;102364.06;5078783;28;45449;-65
2023/05/27 02:35:38;;;;;;;;;11.00;8.00;;;;;13.14;58.17;102362.34;5078992;28;45336;-65
2023/05/27 02:38:03;;;;;;;;;7.33;7.33;;;;;13.08;57.84;102359.72;5079082;28;45365;-65
2023/05/27 02:40:29;;;;;;;;;7.00;6.33;;;;;13.14;57.89;102362.34;5078707;28;47192;-65
2023/05/27 02:42:55;;;;;;;;;7.33;7.33;;;;;13.09;58.58;102369.44;5078725;28;45388;-65
2023/05/27 02:45:21;;;;;;;;;10.00;7.33;;;;;13.06;58.85;102366.81;5078537;28;45240;-65
2023/05/27 02:47:46;;;;;;;;;10.33;7.00;;;;;13.00;58.45;102365.09;5079015;28;45298;-65
2023/05/27 02:50:12;;;;;;;;;11.00;8.00;;;;;12.95;59.03;102358.94;5078338;28;46754;-65
2023/05/27 02:52:37;;;;;;;;;11.00;6.33;;;;;12.95;59.02;102364.22;5078753;28;45333;-65
2023/05/27 02:55:03;;;;;;;;;9.67;7.00;;;;;12.88;58.83;102350.19;5078719;28;45535;-65
2023/05/27 02:57:28;;;;;;;;;10.00;4.67;;;;;12.91;59.08;102369.53;5078829;28;45263;-65
2023/05/27 02:59:53;;;;;;;;;6.00;5.33;;;;;12.90;58.91;102358.09;5078607;28;46807;-64
2023/05/27 03:02:19;;;;;;;;;7.00;6.67;;;;;12.89;59.20;102351.94;5078381;28;45163;-65
2023/05/27 03:04:44;;;;;;;;;11.00;8.00;;;;;12.91;58.83;102358.97;5078507;28;45498;-65
2023/05/27 03:07:09;;;;;;;;;11.33;7.00;;;;;12.86;59.60;102356.38;5078562;28;45465;-65
2023/05/27 03:09:35;;;;;;;;;10.67;6.67;;;;;12.78;59.03;102351.13;5078195;28;45542;-65
2023/05/27 03:12:00;;;;;;;;;6.33;6.00;;;;;12.85;59.40;102360.78;5078404;28;45505;-65
2023/05/27 03:14:25;;;;;;;;;14.33;10.00;;;;;12.79;59.11;102355.50;5078466;28;45329;-65
2023/05/27 03:16:51;;;;;;;;;10.00;5.33;;;;;12.75;59.86;102352.91;5078685;28;45320;-65
2023/05/27 03:19:16;;;;;;;;;8.00;6.00;;;;;12.71;59.86;102345.00;5078010;28;46309;-63
2023/05/27 03:21:41;;;;;;;;;10.67;7.00;;;;;12.79;59.72;102362.56;5077918;28;45394;-62
2023/05/27 03:24:07;;;;;;;;;9.67;6.00;;;;;12.76;59.75;102362.59;5078456;28;45392;-62
2023/05/27 03:26:32;;;;;;;;;11.33;7.67;;;;;12.71;59.84;102352.06;5078146;28;45341;-62
2023/05/27 03:28:57;;;;;;;;;10.00;7.00;;;;;12.70;58.93;102350.28;5078167;28;45515;-62
2023/05/27 03:31:23;;;;;;;;;9.33;6.00;;;;;12.70;59.97;102353.81;5077803;28;45277;-62
2023/05/27 03:33:49;;;;;;;;;11.33;8.00;;;;;12.73;59.31;102363.50;5078182;28;45724;-62
2023/05/27 03:36:15;;;;;;;;;12.00;7.33;;;;;12.71;59.66;102362.63;5078274;28;45474;-62
2023/05/27 03:38:40;;;;;;;;;6.33;5.67;;;;;12.69;59.89;102354.72;5077962;27;45629;-62
2023/05/27 03:41:06;;;;;;;;;8.00;7.00;;;;;12.74;59.81;102361.75;5077944;28;45248;-62
2023/05/27 03:43:31;;;;;;;;;8.00;6.00;;;;;12.72;59.69;102353.78;5077746;28;45221;-62
2023/05/27 03:45:56;;;;;;;;;8.67;6.00;;;;;12.73;59.58;102362.63;5077940;28;45367;-63
2023/05/27 03:48:22;;;;;;;;;7.00;7.00;;;;;12.62;59.67;102360.91;5077682;28;46344;-62
2023/05/27 03:50:47;;;;;;;;;10.33;7.00;;;;;12.47;60.57;102342.50;5077644;28;45248;-62
2023/05/27 03:53:12;;;;;;;;;10.33;6.00;;;;;12.61;60.30;102359.16;5077679;28;45347;-62
2023/05/27 03:55:38;;;;;;;;;8.00;5.67;;;;;12.52;60.21;102346.88;5077619;28;45411;-62
2023/05/27 03:58:04;;;;;;;;;8.33;8.33;;;;;12.60;59.90;102353.88;5077533;28;45604;-63
2023/05/27 04:00:30;;;;;;;;;9.33;7.00;;;;;12.52;60.14;102332.78;5077851;28;45402;-62
2023/05/27 04:02:56;;;;;;;;;10.67;6.67;;;;;12.49;60.58;102341.59;5077739;28;45433;-62
2023/05/27 04:05:21;;;;;;;;;10.00;7.67;;;;;12.49;60.67;102341.59;5077753;28;45368;-62
2023/05/27 04:07:46;;;;;;;;;12.67;10.00;;;;;12.46;60.83;102341.63;5077238;28;46461;-62
2023/05/27 04:10:12;;;;;;;;;8.00;7.00;;;;;12.49;60.81;102348.63;5077318;28;45449;-62
2023/05/27 04:12:40;;;;;;;;;9.00;7.00;;;;;12.50;60.37;102342.47;5077737;28;45326;-62
2023/05/27 04:15:06;;;;;;;;;13.00;10.00;;;;;12.50;60.68;102340.72;5077841;28;45214;-62
2023/05/27 04:17:31;;;;;;;;;13.00;8.67;;;;;12.51;60.48;102347.75;5077249;28;46629;-62
2023/05/27 04:19:57;;;;;;;;;8.00;6.33;;;;;12.47;59.93;102345.13;5077072;28;45229;-62
2023/05/27 04:22:22;;;;;;;;;10.00;6.00;;;;;12.39;60.13;102346.91;5077451;28;45309;-62
2023/05/27 04:24:48;;;;;;;;;12.67;8.67;;;;;12.44;60.86;102346.00;5077844;28;45265;-62
2023/05/27 04:27:16;;;;;;;;;12.33;8.67;;;;;12.35;60.95;102341.66;5077108;28;45361;-62
2023/05/27 04:29:43;;;;;;;;;9.33;8.33;;;;;12.34;60.90;102329.34;5077217;28;45463;-62
2023/05/27 04:32:09;;;;;;;;;11.33;8.33;;;;;12.47;60.92;102353.91;5077110;28;45347;-62
2023/05/27 04:34:35;;;;;;;;;10.33;7.00;;;;;12.47;60.03;102351.28;5077261;28;45441;-62
2023/05/27 04:37:00;;;;;;;;;10.67;7.67;;;;;12.36;60.90;102338.13;5077125;28;46062;-62
2023/05/27 04:39:26;;;;;;;;;10.67;8.67;;;;;12.44;61.17;102347.78;5076995;28;45458;-65
2023/05/27 04:41:51;;;;;;;;;9.00;8.00;;;;;12.39;61.28;102339.00;5077346;28;45317;-65
2023/05/27 04:44:17;;;;;;;;;9.33;8.00;;;;;12.40;61.41;102344.25;5077334;28;45601;-65
2023/05/27 04:46:43;;;;;;;;;12.00;9.00;;;;;12.41;61.36;102342.53;5076557;28;46314;-65
2023/05/27 04:49:10;;;;;;;;;12.00;9.00;;;;;12.40;61.29;102343.41;5076911;28;45281;-65
2023/05/27 04:51:35;;;;;;;;;7.00;6.67;;;;;12.38;60.67;102327.56;5077032;28;45304;-65
2023/05/27 04:54:01;;;;;;;;;8.67;5.00;;;;;12.47;60.08;102332.78;5077422;28;45387;-65
2023/05/27 04:56:27;;;;;;;;;13.33;9.33;;;;;12.54;60.97;102352.13;5076713;28;46302;-65
2023/05/27 04:58:52;;;;;;;;;17.67;9.33;;;;;12.52;61.02;102336.28;5076801;28;45810;-65
2023/05/27 05:01:18;;;;;;;;;10.00;7.67;;;;;12.55;60.96;102330.13;5077125;28;46010;-65
2023/05/27 05:03:52;;;;;;;;;8.33;7.00;;;;;12.72;60.74;102332.66;5077138;28;45343;-65
2023/05/27 05:06:19;;;;;;;;;11.00;9.33;;;;;13.16;59.58;102338.53;5077661;28;47113;-65
2023/05/27 05:08:44;;;;;;;;;20.00;9.67;;;;;13.27;58.63;102323.44;5080062;28;45360;-65
2023/05/27 05:11:10;;;;;;;;;9.33;7.33;;;;;13.29;58.68;102349.88;5080373;28;45343;-65
2023/05/27 05:13:35;;;;;;;;;13.00;9.00;;;;;13.21;58.59;102347.31;5080436;28;45533;-65
2023/05/27 05:16:00;;;;;;;;;12.33;8.67;;;;;12.83;59.28;102296.47;5080021;28;46167;-65
2023/05/27 05:18:26;;;;;;;;;13.00;7.00;;;;;13.08;58.62;102351.81;5080113;28;45272;-65
2023/05/27 05:20:51;;;;;;;;;11.33;8.00;;;;;12.81;59.17;102308.81;5080092;28;45391;-65
2023/05/27 05:23:16;;;;;;;;;16.00;9.00;;;;;12.98;59.36;102343.09;5080262;28;45241;-65
2023/05/27 05:25:42;;;;;;;;;10.00;10.00;;;;;12.76;58.73;102310.59;5080042;28;45222;-65
2023/05/27 05:28:07;;;;;;;;;10.33;10.33;;;;;12.95;59.75;102336.91;5079861;28;45220;-65
2023/05/27 05:30:33;;;;;;;;;13.67;9.67;;;;;12.94;59.51;102328.13;5079924;28;45387;-65
2023/05/27 05:32:58;;;;;;;;;12.67;10.33;;;;;12.98;59.38;102339.53;5080296;28;45364;-64
2023/05/27 05:35:24;;;;;;;;;13.67;10.00;;;;;13.04;59.50;102340.38;5079618;28;46632;-65
2023/05/27 05:37:49;;;;;;;;;9.33;9.00;;;;;13.04;59.47;102340.38;5079905;28;45454;-62
2023/05/27 05:40:15;;;;;;;;;13.67;8.00;;;;;13.05;59.36;102344.75;5079794;28;45463;-62
2023/05/27 05:42:40;;;;;;;;;8.67;6.33;;;;;13.11;59.30;102338.53;5079844;28;45341;-62
2023/05/27 05:45:06;;;;;;;;;9.00;8.00;;;;;13.10;59.41;102327.97;5079568;28;46283;-63
2023/05/27 05:47:32;;;;;;;;;10.33;7.00;;;;;13.27;58.40;102338.44;5079529;28;45391;-62
2023/05/27 05:49:57;;;;;;;;;11.67;8.00;;;;;13.29;58.82;102336.66;5079679;28;45414;-62
2023/05/27 05:52:22;;;;;;;;;12.67;10.00;;;;;13.27;58.52;102322.56;5079848;28;45569;-62
2023/05/27 05:54:48;;;;;;;;;15.33;10.00;;;;;13.33;58.33;102335.72;5079509;28;45481;-62
2023/05/27 05:57:13;;;;;;;;;11.00;9.67;;;;;13.35;58.26;102324.28;5079559;28;45410;-62
2023/05/27 05:59:39;;;;;;;;;11.00;9.67;;;;;13.36;58.74;102322.50;5079648;28;45850;-62
2023/05/27 06:02:05;;;;;;;;;11.67;8.00;;;;;13.47;58.06;102322.44;5079832;28;45423;-62
2023/05/27 06:04:30;;;;;;;;;12.33;9.00;;;;;13.48;58.16;102317.13;5079229;28;45524;-62
2023/05/27 06:06:56;;;;;;;;;12.67;7.33;;;;;13.62;58.24;102330.19;5079175;28;45462;-62
2023/05/27 06:09:23;;;;;;;;;12.00;8.67;;;;;13.56;57.73;102310.00;5079427;28;45254;-63
2023/05/27 06:11:48;;;;;;;;;12.00;11.67;;;;;13.65;57.80;102316.06;5079483;28;45213;-62
2023/05/27 06:14:13;;;;;;;;;10.00;10.00;;;;;13.67;57.71;102317.81;5079234;28;46058;-62
2023/05/27 06:16:39;;;;;;;;;12.33;9.67;;;;;13.71;57.75;102311.59;5078624;28;45395;-62
2023/05/27 06:19:05;;;;;;;;;10.67;10.00;;;;;13.81;57.57;102306.19;5079160;28;45458;-62
2023/05/27 06:21:32;;;;;;;;;10.67;5.33;;;;;13.88;57.19;102307.88;5079359;28;45408;-62
2023/05/27 06:23:57;;;;;;;;;8.33;7.33;;;;;13.93;57.39;102304.28;5078713;28;46617;-62
2023/05/27 06:26:23;;;;;;;;;10.33;8.67;;;;;13.95;56.71;102303.41;5079092;28;45404;-63
2023/05/27 06:28:48;;;;;;;;;16.67;12.00;;;;;14.07;56.31;102312.06;5078959;28;45428;-62
2023/05/27 06:31:13;;;;;;;;;10.33;8.33;;;;;14.11;56.74;102315.53;5079000;28;45574;-62
2023/05/27 06:33:41;;;;;;;;;13.33;10.33;;;;;14.14;56.37;102315.50;5078946;28;45377;-63
2023/05/27 06:36:06;;;;;;;;;11.67;9.00;;;;;14.16;56.28;102318.13;5078733;28;45194;-62
2023/05/27 06:38:32;;;;;;;;;8.33;6.00;;;;;14.17;56.37;102306.66;5079142;28;45213;-65
2023/05/27 06:40:57;;;;;;;;;14.00;9.00;;;;;14.22;56.33;102304.84;5079164;28;45190;-65
2023/05/27 06:43:22;;;;;;;;;12.67;8.33;;;;;14.27;56.15;102295.03;5078576;28;46378;-65
2023/05/27 06:45:48;;;;;;;;;13.67;9.00;;;;;14.30;56.29;102296.78;5078623;28;45407;-65
2023/05/27 06:48:13;;;;;;;;;13.67;9.00;;;;;14.31;56.43;102298.53;5078614;28;45624;-65
2023/05/27 06:50:38;;;;;;;;;11.33;10.33;;;;;14.35;56.28;102313.47;5079055;28;45304;-65
2023/05/27 06:53:04;;;;;;;;;7.00;6.00;;;;;14.44;55.96;102302.75;5078573;28;45302;-65
2023/05/27 06:55:30;;;;;;;;;11.00;8.33;;;;;14.57;55.79;102301.69;5078442;28;45281;-65
2023/05/27 06:57:55;;;;;;;;;13.67;9.00;;;;;14.59;55.96;102294.56;5078793;28;45508;-65
2023/05/27 07:00:20;;;;;;;;;11.33;8.33;;;;;14.86;55.35;102289.81;5078657;28;45412;-65
2023/05/27 07:02:46;;;;;;;;;15.33;12.33;;;;;15.27;55.22;102290.00;5078492;28;46608;-63
2023/05/27 07:05:11;;;;;;;;;10.00;8.67;;;;;16.08;52.90;102289.41;5078265;28;45358;-63
2023/05/27 07:07:37;;;;;;;;;14.00;11.33;;;;;16.13;51.97;102293.66;5078170;28;45784;-62
2023/05/27 07:10:02;;;;;;;;;10.33;9.33;;;;;15.99;52.00;102272.72;5078718;28;45454;-62
2023/05/27 07:12:27;;;;;;;;;19.33;17.33;;;;;15.97;52.47;102271.00;5078186;28;45760;-62
2023/05/27 07:14:53;;;;;;;;;14.67;8.33;;;;;15.97;52.32;102278.97;5078253;28;45401;-62
2023/05/27 07:17:18;;;;;;;;;10.67;8.67;;;;;16.27;52.28;102276.59;5076925;28;45311;-62
2023/05/27 07:19:43;;;;;;;;;14.00;11.00;;;;;16.95;51.45;102275.91;5078556;28;45367;-62
2023/05/27 07:22:09;;;;;;;;;10.33;9.33;;;;;16.96;50.60;102271.44;5077958;28;46558;-63
2023/05/27 07:24:34;;;;;;;;;9.33;8.67;;;;;16.81;50.73;102270.00;5078204;28;45984;-63
2023/05/27 07:26:59;;;;;;;;;10.67;9.00;;;;;16.58;51.35;102268.75;5078176;28;45325;-63
2023/05/27 07:29:25;;;;;;;;;19.00;10.67;;;;;16.33;50.97;102239.22;5077322;28;45828;-62
2023/05/27 07:31:50;;;;;;;;;11.33;9.00;;;;;16.54;51.33;102269.72;5077888;28;46612;-63
2023/05/27 07:34:16;;;;;;;;;9.33;9.33;;;;;16.48;50.75;102267.22;5077877;28;45455;-63
2023/05/27 07:36:41;;;;;;;;;12.67;8.33;;;;;16.49;51.49;102266.31;5077924;28;45303;-63
2023/05/27 07:39:06;;;;;;;;;12.33;10.33;;;;;16.34;50.60;102244.50;5078239;28;45423;-63
2023/05/27 07:41:33;;;;;;;;;14.33;9.33;;;;;16.52;51.30;102276.88;5077670;28;45705;-63
2023/05/27 07:43:58;;;;;;;;;10.33;8.67;;;;;16.60;50.90;102268.72;5077874;28;45202;-63
2023/05/27 07:46:23;;;;;;;;;13.67;10.33;;;;;16.77;50.78;102252.38;5077572;28;45803;-63
2023/05/27 07:48:50;;;;;;;;;16.33;10.33;;;;;17.01;50.75;102257.09;5077767;28;45451;-63
2023/05/27 07:51:16;;;;;;;;;11.00;8.00;;;;;16.98;49.42;102261.66;5077521;28;47365;-63
2023/05/27 07:53:41;;;;;;;;;11.33;9.67;;;;;17.09;50.01;102258.69;5077622;28;45378;-63
2023/05/27 07:56:06;;;;;;;;;13.00;8.33;;;;;17.34;49.24;102267.78;5077706;28;45327;-63
2023/05/27 07:58:32;;;;;;;;;11.00;7.00;;;;;17.35;49.35;102258.88;5077839;28;45550;-63
2023/05/27 08:00:57;;;;;;;;;8.00;7.00;;;;;17.39;49.20;102257.00;5077437;28;45532;-63
2023/05/27 08:03:22;;;;;;;;;9.67;9.33;;;;;17.51;49.09;102259.31;5077689;28;45288;-63
2023/05/27 08:05:48;;;;;;;;;7.67;6.67;;;;;17.82;48.25;102253.16;5077489;28;45918;-63
2023/05/27 08:08:13;;;;;;;;;12.67;9.67;;;;;17.84;47.52;102243.31;5077671;28;45284;-63
2023/05/27 08:10:39;;;;;;;;;11.33;9.33;;;;;18.17;47.30;102240.59;5077369;28;46480;-63
2023/05/27 08:13:04;;;;;;;;;9.33;6.33;;;;;18.52;46.05;102243.94;5077348;28;45360;-63
2023/05/27 08:15:30;;;;;;;;;12.33;9.67;;;;;18.83;46.20;102242.94;5077665;28;45418;-63
2023/05/27 08:17:55;;;;;;;;;12.00;10.33;;;;;19.30;46.09;102235.13;5077714;28;45392;-63
2023/05/27 08:20:21;;;;;;;;;13.67;12.00;;;;;20.16;44.09;102230.19;5076089;27;48241;-63
2023/05/27 08:22:46;;;;;;;;;10.67;9.00;;;;;20.76;42.78;102230.44;5077232;28;45467;-63
2023/05/27 08:25:11;;;;;;;;;11.33;11.00;;;;;20.70;42.50;102220.00;5077332;28;45300;-63
2023/05/27 08:27:53;;;;;;;;;13.67;11.00;;;;;20.58;42.86;102234.75;5077569;28;45388;-63
2023/05/27 08:30:19;;;;;;;;;14.00;9.00;;;;;20.53;42.99;102224.22;5077212;28;45544;-63
2023/05/27 08:32:45;;;;;;;;;8.00;8.00;;;;;20.43;42.42;102221.97;5077143;28;45855;-63
2023/05/27 08:35:11;;;;;;;;;10.33;8.00;;;;;20.34;42.54;102213.38;5077379;28;45419;-63
2023/05/27 08:37:37;;;;;;;;;8.00;7.00;;;;;20.02;42.79;102209.31;5077345;28;45325;-63
2023/05/27 08:40:07;;;;;;;;;9.00;6.33;;;;;19.85;43.08;102209.97;5077997;28;45445;-63
2023/05/27 08:42:33;;;;;;;;;12.00;8.67;;;;;19.69;43.47;102204.31;5080657;28;45391;-63
2023/05/27 08:45:00;;;;;;;;;11.67;7.33;;;;;19.56;43.83;102201.25;5080323;28;45479;-63
2023/05/27 08:47:28;;;;;;;;;5.67;5.67;;;;;19.39;43.90;102201.88;5080626;28;45301;-63
2023/05/27 08:49:53;;;;;;;;;11.00;9.33;;;;;19.23;44.28;102193.53;5080243;28;46290;-63
2023/05/27 08:52:20;;;;;;;;;8.33;6.00;;;;;19.38;43.87;102196.59;5079848;28;45246;-63
2023/05/27 08:54:46;;;;;;;;;12.00;7.00;;;;;19.38;43.70;102167.19;5080516;28;45465;-63
2023/05/27 08:57:12;;;;;;;;;11.67;7.33;;;;;19.54;43.51;102195.06;5080555;28;45529;-64
2023/05/27 08:59:39;;;;;;;;;11.33;8.33;;;;;19.45;43.54;102192.75;5080130;28;45365;-64
2023/05/27 09:02:11;;;;;;;;;10.00;8.00;;;;;19.18;43.63;102144.75;5079997;28;45442;-64
2023/05/27 09:04:40;;;;;;;;;11.00;8.67;;;;;19.40;43.68;102176.91;5080222;28;45396;-64
2023/05/27 09:07:06;;;;;;;;;13.33;7.67;;;;;19.38;43.96;102169.88;5080513;28;45258;-64
2023/05/27 09:09:32;;;;;;;;;7.67;6.00;;;;;19.40;43.69;102171.56;5079838;28;47269;-65
2023/05/27 09:12:05;;;;;;;;;13.67;9.33;;;;;19.54;43.85;102178.19;5079877;28;45367;-64
2023/05/27 09:14:31;;;;;;;;;8.00;6.00;;;;;19.89;43.04;102165.28;5080183;28;45421;-64
2023/05/27 09:17:04;;;;;;;;;8.00;5.00;;;;;20.39;42.72;102173.09;5080388;28;45857;-65
2023/05/27 09:19:30;;;;;;;;;7.33;6.00;;;;;20.51;42.37;102167.22;5079776;28;46770;-64
2023/05/27 09:21:55;;;;;;;;;10.33;8.33;;;;;20.46;42.31;102158.53;5079863;28;45546;-64
2023/05/27 09:24:24;;;;;;;;;10.33;10.33;;;;;20.41;42.34;102162.31;5079854;28;45473;-65
2023/05/27 09:26:51;;;;;;;;;9.00;7.00;;;;;20.39;42.35;102162.38;5080183;28;45561;-65
2023/05/27 09:29:18;;;;;;;;;9.00;7.33;;;;;20.26;41.94;102151.31;5079758;28;46611;-65
2023/05/27 09:31:44;;;;;;;;;9.67;7.00;;;;;20.31;42.03;102146.63;5079680;28;45312;-64
2023/05/27 09:34:16;;;;;;;;;11.00;7.00;;;;;20.49;42.67;102144.13;5079822;28;45356;-64
2023/05/27 09:36:47;;;;;;;;;7.33;7.00;;;;;21.49;41.70;102138.88;5080190;28;45342;-65
2023/05/27 09:39:13;;;;;;;;;14.67;6.33;;;;;23.55;39.36;102148.25;5079574;28;47037;-65
2023/05/27 09:41:39;;;;;;;;;16.00;10.00;;;;;25.03;36.77;102118.97;5079764;28;45325;-65
2023/05/27 09:44:05;;;;;;;;;12.67;8.00;;;;;26.93;34.33;102122.72;5079510;28;45302;-65
2023/05/27 09:46:33;;;;;;;;;8.00;5.67;;;;;29.05;32.47;102122.44;5079431;28;45553;-65
2023/05/27 09:48:59;;;;;;;;;9.67;8.00;;;;;30.77;29.76;102103.69;5079411;28;46439;-64
2023/05/27 09:51:27;;;;;;;;;15.67;11.67;;;;;32.62;28.68;102114.97;5078557;28;45427;-64
2023/05/27 09:53:58;;;;;;;;;7.33;7.00;;;;;34.15;27.28;102116.38;5079625;28;45304;-64
2023/05/27 09:56:26;;;;;;;;;8.00;6.00;;;;;35.50;24.29;102122.41;5079727;28;45484;-64
2023/05/27 09:58:53;;;;;;;;;6.33;5.33;;;;;36.49;23.09;102116.22;5079088;28;46582;-64
2023/05/27 10:01:20;;;;;;;;;6.67;5.33;;;;;37.25;24.92;102119.44;5079285;28;45340;-65
2023/05/27 10:03:46;;;;;;;;;9.67;7.00;;;;;37.77;22.38;102118.84;5079552;28;45343;-64
2023/05/27 10:06:15;;;;;;;;;11.33;9.33;;;;;38.25;21.89;102104.06;5079429;28;45406;-65
2023/05/27 10:08:42;;;;;;;;;9.00;7.33;;;;;38.72;20.00;102082.81;5078918;28;47102;-65
2023/05/27 10:11:07;;;;;;;;;9.00;6.00;;;;;39.55;19.11;102110.16;5079010;28;45256;-65
2023/05/27 10:13:33;;;;;;;;;11.67;9.33;;;;;40.00;19.36;102103.44;5079384;28;45257;-65
2023/05/27 10:15:58;;;;;;;;;6.00;6.00;;;;;40.50;21.04;102106.22;5079549;28;45485;-65
2023/05/27 10:18:25;;;;;;;;;9.00;6.00;;;;;40.32;20.66;102105.88;5078797;28;45336;-65
2023/05/27 10:20:51;;;;;;;;;8.33;8.33;;;;;40.19;18.26;102106.63;5079247;28;45236;-65
2023/05/27 10:23:25;;;;;;;;;10.00;7.00;;;;;40.08;20.21;102099.72;5078952;28;45349;-62
2023/05/27 10:25:52;;;;;;;;;8.67;7.00;;;;;40.20;17.92;102102.78;5079150;28;45330;-65
2023/05/27 10:28:28;;;;;;;;;11.67;10.00;;;;;40.44;19.08;102104.25;5078655;28;45323;-65
2023/05/27 10:31:04;;;;;;;;;10.67;9.00;;;;;40.90;18.75;102098.22;5078934;28;45368;-65
2023/05/27 10:33:30;;;;;;;;;6.67;6.33;;;;;41.34;17.76;102090.56;5078978;28;45417;-65
2023/05/27 10:36:02;;;;;;;;;9.33;7.00;;;;;41.53;18.30;102099.97;5078971;28;45384;-65
2023/05/27 10:38:27;;;;;;;;;6.33;5.67;;;;;41.54;17.33;102096.16;5078582;28;46269;-65
2023/05/27 10:41:00;;;;;;;;;8.67;7.67;;;;;41.54;18.46;102095.31;5078246;28;45470;-65
2023/05/27 10:43:28;;;;;;;;;10.00;10.00;;;;;41.45;16.79;102091.88;5078660;28;45431;-65
2023/05/27 10:46:13;;;;;;;;;10.67;8.67;;;;;41.22;17.64;102076.47;5078529;28;45586;-65
2023/05/27 10:48:39;;;;;;;;;10.67;6.00;;;;;41.11;17.91;102082.56;5078203;28;46229;-64
2023/05/27 10:51:06;;;;;;;;;11.75;7.75;;;;;40.61;17.07;102066.16;5078326;28;45404;-64
2023/05/27 10:53:34;;;;;;;;;9.00;8.00;;;;;40.09;17.12;102070.25;5077566;28;45246;-64
2023/05/27 10:56:00;;;;;;;;;11.33;8.00;;;;;39.24;17.65;102070.78;5078241;28;45291;-65
2023/05/27 10:58:26;;;;;;;;;11.33;8.33;;;;;38.25;18.04;102065.56;5059558;28;46691;-64
2023/05/27 11:00:53;;;;;;;;;8.33;7.00;;;;;37.40;18.93;102056.38;5078342;28;45418;-64
2023/05/27 11:03:25;;;;;;;;;10.00;9.00;;;;;36.37;19.75;102052.63;5076434;28;45754;-63
2023/05/27 11:06:01;;;;;;;;;7.00;7.00;;;;;35.29;20.61;102040.69;5078203;28;45465;-64
2023/05/27 11:08:26;;;;;;;;;7.00;4.67;;;;;34.13;21.11;102030.06;5077538;28;45551;-64
2023/05/27 11:10:57;;;;;;;;;9.00;7.00;;;;;32.92;21.53;102039.38;5078088;28;45436;-64
2023/05/27 11:13:29;;;;;;;;;6.67;6.00;;;;;31.81;22.87;102030.84;5078205;28;45324;-65
2023/05/27 11:15:55;;;;;;;;;11.33;7.00;;;;;30.81;24.43;102038.00;5078225;28;45300;-64